sensor_id;sensor_type;location;lat;lon;timestamp;P1;durP1;ratioP1;P2;durP2;ratioP2
51943;SDS011;37969;53.132;6.370;2023-05-29T00:00:20;22.65;;;3.70;;
51943;SDS011;37969;53.132;6.370;2023-05-29T00:02:47;31.90;;;4.85;;
51943;SDS011;37969;53.132;6.370;2023-05-29T00:05:13;22.65;;;3.60;;
51943;SDS011;37969;53.132;6.370;2023-05-29T00:07:40;29.92;;;4.82;;
51943;SDS011;37969;53.132;6.370;2023-05-29T00:10:07;25.83;;;4.32;;
51943;SDS011;37969;53.132;6.370;2023-05-29T00:12:34;25.02;;;3.58;;
51943;SDS011;37969;53.132;6.370;2023-05-29T00:15:00;23.90;;;3.83;;
51943;SDS011;37969;53.132;6.370;2023-05-29T00:17:26;18.30;;;3.95;;
51943;SDS011;37969;53.132;6.370;2023-05-29T00:19:53;24.50;;;4.38;;
51943;SDS011;37969;53.132;6.370;2023-05-29T00:22:19;19.02;;;3.88;;
51943;SDS011;37969;53.132;6.370;2023-05-29T00:24:45;25.48;;;3.88;;
51943;SDS011;37969;53.132;6.370;2023-05-29T00:27:11;24.23;;;4.05;;
51943;SDS011;37969;53.132;6.370;2023-05-29T00:29:38;21.75;;;3.47;;
51943;SDS011;37969;53.132;6.370;2023-05-29T00:32:04;26.48;;;3.58;;
51943;SDS011;37969;53.132;6.370;2023-05-29T00:34:31;24.02;;;3.42;;
51943;SDS011;37969;53.132;6.370;2023-05-29T00:36:57;21.00;;;3.45;;
51943;SDS011;37969;53.132;6.370;2023-05-29T00:39:23;20.02;;;3.38;;
51943;SDS011;37969;53.132;6.370;2023-05-29T00:41:49;23.63;;;3.88;;
51943;SDS011;37969;53.132;6.370;2023-05-29T00:44:18;22.15;;;4.05;;
51943;SDS011;37969;53.132;6.370;2023-05-29T00:46:45;28.83;;;4.05;;
51943;SDS011;37969;53.132;6.370;2023-05-29T00:49:11;20.30;;;4.45;;
51943;SDS011;37969;53.132;6.370;2023-05-29T00:51:37;27.10;;;3.95;;
51943;SDS011;37969;53.132;6.370;2023-05-29T00:54:04;26.95;;;3.80;;
51943;SDS011;37969;53.132;6.370;2023-05-29T00:56:33;24.45;;;3.85;;
51943;SDS011;37969;53.132;6.370;2023-05-29T00:59:00;24.55;;;4.43;;
51943;SDS011;37969;53.132;6.370;2023-05-29T01:01:26;21.80;;;4.32;;
51943;SDS011;37969;53.132;6.370;2023-05-29T01:03:55;25.02;;;4.50;;
51943;SDS011;37969;53.132;6.370;2023-05-29T01:06:22;25.13;;;3.92;;
51943;SDS011;37969;53.132;6.370;2023-05-29T01:08:49;21.70;;;4.40;;
51943;SDS011;37969;53.132;6.370;2023-05-29T01:13:46;27.38;;;4.15;;
51943;SDS011;37969;53.132;6.370;2023-05-29T01:16:15;21.08;;;3.80;;
51943;SDS011;37969;53.132;6.370;2023-05-29T01:18:54;21.92;;;3.70;;
51943;SDS011;37969;53.132;6.370;2023-05-29T01:21:27;28.52;;;4.40;;
51943;SDS011;37969;53.132;6.370;2023-05-29T01:29:02;20.70;;;4.05;;
51943;SDS011;37969;53.132;6.370;2023-05-29T01:31:30;21.13;;;3.90;;
51943;SDS011;37969;53.132;6.370;2023-05-29T01:33:57;28.88;;;4.10;;
51943;SDS011;37969;53.132;6.370;2023-05-29T01:36:24;25.92;;;4.25;;
51943;SDS011;37969;53.132;6.370;2023-05-29T01:38:52;19.13;;;3.83;;
51943;SDS011;37969;53.132;6.370;2023-05-29T01:41:19;19.30;;;3.88;;
51943;SDS011;37969;53.132;6.370;2023-05-29T01:43:46;24.08;;;4.10;;
51943;SDS011;37969;53.132;6.370;2023-05-29T01:46:13;30.73;;;4.35;;
51943;SDS011;37969;53.132;6.370;2023-05-29T01:48:40;23.17;;;4.15;;
51943;SDS011;37969;53.132;6.370;2023-05-29T01:51:06;19.27;;;3.97;;
51943;SDS011;37969;53.132;6.370;2023-05-29T01:53:33;21.27;;;4.32;;
51943;SDS011;37969;53.132;6.370;2023-05-29T01:55:59;27.17;;;4.28;;
51943;SDS011;37969;53.132;6.370;2023-05-29T01:58:26;19.73;;;3.50;;
51943;SDS011;37969;53.132;6.370;2023-05-29T02:00:53;22.65;;;3.97;;
51943;SDS011;37969;53.132;6.370;2023-05-29T02:03:20;22.55;;;3.63;;
51943;SDS011;37969;53.132;6.370;2023-05-29T02:05:46;33.50;;;4.55;;
51943;SDS011;37969;53.132;6.370;2023-05-29T02:08:12;23.15;;;4.50;;
51943;SDS011;37969;53.132;6.370;2023-05-29T02:10:39;20.25;;;3.63;;
51943;SDS011;37969;53.132;6.370;2023-05-29T02:13:05;19.67;;;3.70;;
51943;SDS011;37969;53.132;6.370;2023-05-29T02:15:31;22.65;;;3.90;;
51943;SDS011;37969;53.132;6.370;2023-05-29T02:17:57;21.08;;;3.72;;
51943;SDS011;37969;53.132;6.370;2023-05-29T02:20:26;24.38;;;4.13;;
51943;SDS011;37969;53.132;6.370;2023-05-29T02:22:52;27.50;;;4.70;;
51943;SDS011;37969;53.132;6.370;2023-05-29T02:25:18;18.58;;;4.22;;
51943;SDS011;37969;53.132;6.370;2023-05-29T02:27:45;20.60;;;4.10;;
51943;SDS011;37969;53.132;6.370;2023-05-29T02:30:11;27.25;;;5.07;;
51943;SDS011;37969;53.132;6.370;2023-05-29T02:32:37;26.52;;;4.63;;
51943;SDS011;37969;53.132;6.370;2023-05-29T02:35:03;22.23;;;5.22;;
51943;SDS011;37969;53.132;6.370;2023-05-29T02:37:29;18.30;;;4.22;;
51943;SDS011;37969;53.132;6.370;2023-05-29T02:39:56;21.00;;;3.95;;
51943;SDS011;37969;53.132;6.370;2023-05-29T02:42:22;27.55;;;4.57;;
51943;SDS011;37969;53.132;6.370;2023-05-29T02:44:48;23.25;;;4.22;;
51943;SDS011;37969;53.132;6.370;2023-05-29T02:47:14;21.95;;;4.25;;
51943;SDS011;37969;53.132;6.370;2023-05-29T02:49:40;25.83;;;4.72;;
51943;SDS011;37969;53.132;6.370;2023-05-29T02:52:07;30.67;;;4.50;;
51943;SDS011;37969;53.132;6.370;2023-05-29T02:54:33;25.17;;;4.82;;
51943;SDS011;37969;53.132;6.370;2023-05-29T02:56:59;32.70;;;4.90;;
51943;SDS011;37969;53.132;6.370;2023-05-29T02:59:27;21.95;;;4.10;;
51943;SDS011;37969;53.132;6.370;2023-05-29T03:01:54;20.83;;;3.85;;
51943;SDS011;37969;53.132;6.370;2023-05-29T03:04:20;21.45;;;3.85;;
51943;SDS011;37969;53.132;6.370;2023-05-29T03:06:46;23.40;;;4.85;;
51943;SDS011;37969;53.132;6.370;2023-05-29T03:09:12;18.75;;;3.55;;
51943;SDS011;37969;53.132;6.370;2023-05-29T03:11:38;17.85;;;3.90;;
51943;SDS011;37969;53.132;6.370;2023-05-29T03:14:05;18.17;;;3.97;;
51943;SDS011;37969;53.132;6.370;2023-05-29T03:16:32;23.10;;;4.50;;
51943;SDS011;37969;53.132;6.370;2023-05-29T03:18:58;24.67;;;4.15;;
51943;SDS011;37969;53.132;6.370;2023-05-29T03:21:24;22.27;;;4.05;;
51943;SDS011;37969;53.132;6.370;2023-05-29T03:23:51;21.42;;;4.20;;
51943;SDS011;37969;53.132;6.370;2023-05-29T03:26:17;15.95;;;4.03;;
51943;SDS011;37969;53.132;6.370;2023-05-29T03:28:43;24.65;;;3.67;;
51943;SDS011;37969;53.132;6.370;2023-05-29T03:31:09;21.48;;;3.55;;
51943;SDS011;37969;53.132;6.370;2023-05-29T03:33:35;24.13;;;3.85;;
51943;SDS011;37969;53.132;6.370;2023-05-29T03:36:02;20.80;;;3.80;;
51943;SDS011;37969;53.132;6.370;2023-05-29T03:38:28;20.13;;;3.53;;
51943;SDS011;37969;53.132;6.370;2023-05-29T03:40:54;18.73;;;3.63;;
51943;SDS011;37969;53.132;6.370;2023-05-29T03:43:20;21.10;;;3.60;;
51943;SDS011;37969;53.132;6.370;2023-05-29T03:45:46;20.70;;;3.47;;
51943;SDS011;37969;53.132;6.370;2023-05-29T03:48:14;24.13;;;4.45;;
51943;SDS011;37969;53.132;6.370;2023-05-29T03:50:40;23.40;;;3.90;;
51943;SDS011;37969;53.132;6.370;2023-05-29T03:53:06;24.15;;;4.32;;
51943;SDS011;37969;53.132;6.370;2023-05-29T03:55:32;24.80;;;4.00;;
51943;SDS011;37969;53.132;6.370;2023-05-29T03:57:58;20.33;;;4.15;;
51943;SDS011;37969;53.132;6.370;2023-05-29T04:00:25;23.05;;;3.50;;
51943;SDS011;37969;53.132;6.370;2023-05-29T04:02:51;22.35;;;4.03;;
51943;SDS011;37969;53.132;6.370;2023-05-29T04:05:17;20.20;;;4.75;;
51943;SDS011;37969;53.132;6.370;2023-05-29T04:07:43;23.95;;;3.97;;
51943;SDS011;37969;53.132;6.370;2023-05-29T04:10:10;17.58;;;3.47;;
51943;SDS011;37969;53.132;6.370;2023-05-29T04:12:36;22.92;;;3.95;;
51943;SDS011;37969;53.132;6.370;2023-05-29T04:15:02;22.20;;;3.70;;
51943;SDS011;37969;53.132;6.370;2023-05-29T04:17:28;26.20;;;3.75;;
51943;SDS011;37969;53.132;6.370;2023-05-29T04:19:54;23.17;;;4.50;;
51943;SDS011;37969;53.132;6.370;2023-05-29T04:22:20;23.65;;;3.95;;
51943;SDS011;37969;53.132;6.370;2023-05-29T04:24:47;27.58;;;3.70;;
51943;SDS011;37969;53.132;6.370;2023-05-29T04:27:13;16.45;;;4.15;;
51943;SDS011;37969;53.132;6.370;2023-05-29T04:29:40;24.38;;;3.97;;
51943;SDS011;37969;53.132;6.370;2023-05-29T04:32:07;27.42;;;4.63;;
51943;SDS011;37969;53.132;6.370;2023-05-29T04:34:34;25.25;;;4.18;;
51943;SDS011;37969;53.132;6.370;2023-05-29T04:37:02;20.38;;;4.00;;
51943;SDS011;37969;53.132;6.370;2023-05-29T04:39:28;20.48;;;3.60;;
51943;SDS011;37969;53.132;6.370;2023-05-29T04:41:54;17.95;;;3.75;;
51943;SDS011;37969;53.132;6.370;2023-05-29T04:44:24;23.80;;;3.72;;
51943;SDS011;37969;53.132;6.370;2023-05-29T04:46:51;22.92;;;4.20;;
51943;SDS011;37969;53.132;6.370;2023-05-29T04:49:17;18.83;;;3.88;;
51943;SDS011;37969;53.132;6.370;2023-05-29T04:51:44;24.23;;;4.10;;
51943;SDS011;37969;53.132;6.370;2023-05-29T04:54:11;23.52;;;4.65;;
51943;SDS011;37969;53.132;6.370;2023-05-29T04:56:38;25.05;;;3.92;;
51943;SDS011;37969;53.132;6.370;2023-05-29T04:59:05;27.67;;;4.45;;
51943;SDS011;37969;53.132;6.370;2023-05-29T05:01:32;20.35;;;3.95;;
51943;SDS011;37969;53.132;6.370;2023-05-29T05:03:59;19.70;;;3.67;;
51943;SDS011;37969;53.132;6.370;2023-05-29T05:06:25;14.73;;;3.35;;
51943;SDS011;37969;53.132;6.370;2023-05-29T05:08:52;22.23;;;4.03;;
51943;SDS011;37969;53.132;6.370;2023-05-29T05:11:19;21.70;;;4.13;;
51943;SDS011;37969;53.132;6.370;2023-05-29T05:13:45;24.15;;;4.00;;
51943;SDS011;37969;53.132;6.370;2023-05-29T05:16:11;25.27;;;4.10;;
51943;SDS011;37969;53.132;6.370;2023-05-29T05:18:38;23.77;;;3.67;;
51943;SDS011;37969;53.132;6.370;2023-05-29T05:21:04;30.92;;;4.40;;
51943;SDS011;37969;53.132;6.370;2023-05-29T05:23:30;19.50;;;3.95;;
51943;SDS011;37969;53.132;6.370;2023-05-29T05:25:57;22.80;;;4.13;;
51943;SDS011;37969;53.132;6.370;2023-05-29T05:28:23;24.73;;;4.22;;
51943;SDS011;37969;53.132;6.370;2023-05-29T05:30:49;21.95;;;4.10;;
51943;SDS011;37969;53.132;6.370;2023-05-29T05:33:16;18.92;;;3.53;;
51943;SDS011;37969;53.132;6.370;2023-05-29T05:35:42;21.83;;;3.85;;
51943;SDS011;37969;53.132;6.370;2023-05-29T05:38:08;20.95;;;3.95;;
51943;SDS011;37969;53.132;6.370;2023-05-29T05:40:34;21.92;;;4.15;;
51943;SDS011;37969;53.132;6.370;2023-05-29T05:43:00;20.38;;;4.22;;
51943;SDS011;37969;53.132;6.370;2023-05-29T05:45:27;21.15;;;4.60;;
51943;SDS011;37969;53.132;6.370;2023-05-29T05:47:53;18.30;;;4.50;;
51943;SDS011;37969;53.132;6.370;2023-05-29T05:50:19;20.80;;;4.13;;
51943;SDS011;37969;53.132;6.370;2023-05-29T05:52:46;21.75;;;3.85;;
51943;SDS011;37969;53.132;6.370;2023-05-29T05:55:12;20.98;;;4.38;;
51943;SDS011;37969;53.132;6.370;2023-05-29T05:57:38;27.38;;;5.15;;
51943;SDS011;37969;53.132;6.370;2023-05-29T06:00:04;22.52;;;4.55;;
51943;SDS011;37969;53.132;6.370;2023-05-29T06:02:34;18.23;;;4.20;;
51943;SDS011;37969;53.132;6.370;2023-05-29T06:05:00;27.60;;;4.75;;
51943;SDS011;37969;53.132;6.370;2023-05-29T06:07:26;22.15;;;4.45;;
51943;SDS011;37969;53.132;6.370;2023-05-29T06:09:52;23.85;;;5.32;;
51943;SDS011;37969;53.132;6.370;2023-05-29T06:12:18;27.98;;;5.60;;
51943;SDS011;37969;53.132;6.370;2023-05-29T06:14:44;21.38;;;4.20;;
51943;SDS011;37969;53.132;6.370;2023-05-29T06:17:11;26.27;;;4.95;;
51943;SDS011;37969;53.132;6.370;2023-05-29T06:19:37;25.13;;;4.45;;
51943;SDS011;37969;53.132;6.370;2023-05-29T06:22:03;32.45;;;4.93;;
51943;SDS011;37969;53.132;6.370;2023-05-29T06:24:29;21.50;;;4.45;;
51943;SDS011;37969;53.132;6.370;2023-05-29T06:26:55;23.50;;;4.55;;
51943;SDS011;37969;53.132;6.370;2023-05-29T06:29:21;24.17;;;4.78;;
51943;SDS011;37969;53.132;6.370;2023-05-29T06:31:47;25.13;;;4.50;;
51943;SDS011;37969;53.132;6.370;2023-05-29T06:34:14;29.08;;;5.03;;
51943;SDS011;37969;53.132;6.370;2023-05-29T06:36:40;33.78;;;5.78;;
51943;SDS011;37969;53.132;6.370;2023-05-29T06:39:07;27.48;;;5.18;;
51943;SDS011;37969;53.132;6.370;2023-05-29T06:41:33;28.13;;;5.65;;
51943;SDS011;37969;53.132;6.370;2023-05-29T06:43:59;26.05;;;5.40;;
51943;SDS011;37969;53.132;6.370;2023-05-29T06:46:26;23.88;;;4.40;;
51943;SDS011;37969;53.132;6.370;2023-05-29T06:48:52;21.70;;;5.00;;
51943;SDS011;37969;53.132;6.370;2023-05-29T06:51:18;29.85;;;5.28;;
51943;SDS011;37969;53.132;6.370;2023-05-29T06:53:44;27.65;;;4.90;;
51943;SDS011;37969;53.132;6.370;2023-05-29T06:56:10;25.30;;;6.07;;
51943;SDS011;37969;53.132;6.370;2023-05-29T06:58:37;24.27;;;4.68;;
51943;SDS011;37969;53.132;6.370;2023-05-29T07:01:03;33.80;;;5.35;;
51943;SDS011;37969;53.132;6.370;2023-05-29T07:03:29;30.50;;;5.82;;
51943;SDS011;37969;53.132;6.370;2023-05-29T07:05:55;20.95;;;4.68;;
51943;SDS011;37969;53.132;6.370;2023-05-29T07:08:23;23.70;;;4.90;;
51943;SDS011;37969;53.132;6.370;2023-05-29T07:10:49;31.45;;;4.90;;
51943;SDS011;37969;53.132;6.370;2023-05-29T07:13:16;29.13;;;4.95;;
51943;SDS011;37969;53.132;6.370;2023-05-29T07:15:43;28.65;;;5.18;;
51943;SDS011;37969;53.132;6.370;2023-05-29T07:18:09;30.38;;;4.97;;
51943;SDS011;37969;53.132;6.370;2023-05-29T07:20:36;24.73;;;5.40;;
51943;SDS011;37969;53.132;6.370;2023-05-29T07:23:02;22.80;;;4.65;;
51943;SDS011;37969;53.132;6.370;2023-05-29T07:25:29;25.10;;;5.28;;
51943;SDS011;37969;53.132;6.370;2023-05-29T07:27:56;19.90;;;5.40;;
51943;SDS011;37969;53.132;6.370;2023-05-29T07:30:22;28.58;;;4.75;;
51943;SDS011;37969;53.132;6.370;2023-05-29T07:32:48;27.58;;;4.88;;
51943;SDS011;37969;53.132;6.370;2023-05-29T07:35:15;24.30;;;5.05;;
51943;SDS011;37969;53.132;6.370;2023-05-29T07:37:41;24.83;;;5.00;;
51943;SDS011;37969;53.132;6.370;2023-05-29T07:40:07;24.58;;;4.95;;
51943;SDS011;37969;53.132;6.370;2023-05-29T07:42:34;22.85;;;5.30;;
51943;SDS011;37969;53.132;6.370;2023-05-29T07:45:00;23.90;;;4.90;;
51943;SDS011;37969;53.132;6.370;2023-05-29T07:47:26;25.98;;;4.53;;
51943;SDS011;37969;53.132;6.370;2023-05-29T07:49:52;29.45;;;4.70;;
51943;SDS011;37969;53.132;6.370;2023-05-29T07:52:19;31.65;;;5.18;;
51943;SDS011;37969;53.132;6.370;2023-05-29T07:54:45;27.23;;;4.97;;
51943;SDS011;37969;53.132;6.370;2023-05-29T07:57:11;23.10;;;5.10;;
51943;SDS011;37969;53.132;6.370;2023-05-29T07:59:37;26.50;;;4.70;;
51943;SDS011;37969;53.132;6.370;2023-05-29T08:02:05;22.55;;;4.75;;
51943;SDS011;37969;53.132;6.370;2023-05-29T08:04:31;25.70;;;4.85;;
51943;SDS011;37969;53.132;6.370;2023-05-29T08:06:59;23.88;;;4.75;;
51943;SDS011;37969;53.132;6.370;2023-05-29T08:09:25;25.40;;;4.50;;
51943;SDS011;37969;53.132;6.370;2023-05-29T08:11:51;24.30;;;4.85;;
51943;SDS011;37969;53.132;6.370;2023-05-29T08:14:18;25.77;;;4.82;;
51943;SDS011;37969;53.132;6.370;2023-05-29T08:16:44;22.73;;;5.50;;
51943;SDS011;37969;53.132;6.370;2023-05-29T08:19:10;21.10;;;4.10;;
51943;SDS011;37969;53.132;6.370;2023-05-29T08:21:36;28.67;;;5.55;;
51943;SDS011;37969;53.132;6.370;2023-05-29T08:24:03;29.23;;;4.63;;
51943;SDS011;37969;53.132;6.370;2023-05-29T08:26:31;24.70;;;4.78;;
51943;SDS011;37969;53.132;6.370;2023-05-29T08:28:57;31.40;;;5.75;;
51943;SDS011;37969;53.132;6.370;2023-05-29T08:31:23;26.52;;;4.68;;
51943;SDS011;37969;53.132;6.370;2023-05-29T08:33:50;21.60;;;4.90;;
51943;SDS011;37969;53.132;6.370;2023-05-29T08:36:17;29.60;;;5.45;;
51943;SDS011;37969;53.132;6.370;2023-05-29T08:38:46;22.20;;;4.93;;
51943;SDS011;37969;53.132;6.370;2023-05-29T08:41:16;24.38;;;5.03;;
51943;SDS011;37969;53.132;6.370;2023-05-29T08:43:43;28.52;;;4.82;;
51943;SDS011;37969;53.132;6.370;2023-05-29T08:46:10;25.42;;;5.35;;
51943;SDS011;37969;53.132;6.370;2023-05-29T08:48:37;27.63;;;5.22;;
51943;SDS011;37969;53.132;6.370;2023-05-29T08:51:05;25.25;;;4.75;;
51943;SDS011;37969;53.132;6.370;2023-05-29T08:53:33;29.90;;;5.22;;
51943;SDS011;37969;53.132;6.370;2023-05-29T08:56:00;32.88;;;4.90;;
51943;SDS011;37969;53.132;6.370;2023-05-29T08:58:27;25.75;;;4.80;;
51943;SDS011;37969;53.132;6.370;2023-05-29T09:00:53;29.30;;;5.03;;
51943;SDS011;37969;53.132;6.370;2023-05-29T09:03:20;20.38;;;4.45;;
51943;SDS011;37969;53.132;6.370;2023-05-29T09:05:47;28.55;;;5.47;;
51943;SDS011;37969;53.132;6.370;2023-05-29T09:08:13;28.15;;;5.30;;
51943;SDS011;37969;53.132;6.370;2023-05-29T09:10:41;22.40;;;4.93;;
51943;SDS011;37969;53.132;6.370;2023-05-29T09:13:08;20.67;;;4.85;;
51943;SDS011;37969;53.132;6.370;2023-05-29T09:15:35;27.30;;;5.30;;
51943;SDS011;37969;53.132;6.370;2023-05-29T09:18:03;28.08;;;4.93;;
51943;SDS011;37969;53.132;6.370;2023-05-29T09:20:30;25.65;;;4.53;;
51943;SDS011;37969;53.132;6.370;2023-05-29T09:22:58;23.85;;;4.45;;
51943;SDS011;37969;53.132;6.370;2023-05-29T09:25:26;26.08;;;4.53;;
51943;SDS011;37969;53.132;6.370;2023-05-29T09:27:54;33.13;;;5.20;;
51943;SDS011;37969;53.132;6.370;2023-05-29T09:30:30;28.10;;;5.25;;
51943;SDS011;37969;53.132;6.370;2023-05-29T09:32:58;33.50;;;4.80;;
51943;SDS011;37969;53.132;6.370;2023-05-29T09:35:26;26.67;;;5.13;;
51943;SDS011;37969;53.132;6.370;2023-05-29T09:37:52;27.58;;;5.68;;
51943;SDS011;37969;53.132;6.370;2023-05-29T09:40:18;22.50;;;5.10;;
51943;SDS011;37969;53.132;6.370;2023-05-29T09:42:44;28.33;;;5.20;;
51943;SDS011;37969;53.132;6.370;2023-05-29T09:45:10;25.75;;;5.13;;
51943;SDS011;37969;53.132;6.370;2023-05-29T09:47:37;27.75;;;5.35;;
51943;SDS011;37969;53.132;6.370;2023-05-29T09:50:04;20.25;;;4.40;;
51943;SDS011;37969;53.132;6.370;2023-05-29T09:52:32;28.42;;;5.40;;
51943;SDS011;37969;53.132;6.370;2023-05-29T09:55:01;22.90;;;5.53;;
51943;SDS011;37969;53.132;6.370;2023-05-29T09:57:28;23.58;;;5.10;;
51943;SDS011;37969;53.132;6.370;2023-05-29T09:59:54;35.35;;;5.78;;
51943;SDS011;37969;53.132;6.370;2023-05-29T10:02:21;23.92;;;5.45;;
51943;SDS011;37969;53.132;6.370;2023-05-29T10:04:47;31.45;;;6.40;;
51943;SDS011;37969;53.132;6.370;2023-05-29T10:07:27;25.38;;;5.10;;
51943;SDS011;37969;53.132;6.370;2023-05-29T10:09:58;26.67;;;5.20;;
51943;SDS011;37969;53.132;6.370;2023-05-29T10:12:26;21.67;;;4.60;;
51943;SDS011;37969;53.132;6.370;2023-05-29T10:14:54;29.00;;;5.13;;
51943;SDS011;37969;53.132;6.370;2023-05-29T10:17:25;25.92;;;5.15;;
51943;SDS011;37969;53.132;6.370;2023-05-29T10:19:52;23.90;;;4.78;;
51943;SDS011;37969;53.132;6.370;2023-05-29T10:22:19;32.33;;;5.93;;
51943;SDS011;37969;53.132;6.370;2023-05-29T10:24:48;23.00;;;5.32;;
51943;SDS011;37969;53.132;6.370;2023-05-29T10:27:14;26.58;;;5.13;;
51943;SDS011;37969;53.132;6.370;2023-05-29T10:29:43;28.13;;;5.68;;
51943;SDS011;37969;53.132;6.370;2023-05-29T10:32:29;26.00;;;4.72;;
51943;SDS011;37969;53.132;6.370;2023-05-29T10:37:28;21.73;;;5.32;;
51943;SDS011;37969;53.132;6.370;2023-05-29T10:40:04;28.10;;;4.75;;
51943;SDS011;37969;53.132;6.370;2023-05-29T10:42:45;21.55;;;4.30;;
51943;SDS011;37969;53.132;6.370;2023-05-29T10:47:54;20.55;;;4.35;;
51943;SDS011;37969;53.132;6.370;2023-05-29T10:53:03;25.67;;;5.05;;
51943;SDS011;37969;53.132;6.370;2023-05-29T10:58:05;26.15;;;5.10;;
51943;SDS011;37969;53.132;6.370;2023-05-29T11:00:31;28.15;;;5.00;;
51943;SDS011;37969;53.132;6.370;2023-05-29T11:03:01;18.33;;;4.05;;
51943;SDS011;37969;53.132;6.370;2023-05-29T11:05:27;22.13;;;4.68;;
51943;SDS011;37969;53.132;6.370;2023-05-29T11:07:58;22.10;;;5.18;;
51943;SDS011;37969;53.132;6.370;2023-05-29T11:10:41;23.27;;;4.80;;
51943;SDS011;37969;53.132;6.370;2023-05-29T11:13:09;28.92;;;5.18;;
51943;SDS011;37969;53.132;6.370;2023-05-29T11:15:36;22.70;;;4.55;;
51943;SDS011;37969;53.132;6.370;2023-05-29T11:18:06;19.35;;;4.70;;
51943;SDS011;37969;53.132;6.370;2023-05-29T11:25:27;19.65;;;4.32;;
51943;SDS011;37969;53.132;6.370;2023-05-29T11:27:53;24.20;;;5.03;;
51943;SDS011;37969;53.132;6.370;2023-05-29T11:30:20;23.20;;;5.70;;
51943;SDS011;37969;53.132;6.370;2023-05-29T11:32:46;23.75;;;4.22;;
51943;SDS011;37969;53.132;6.370;2023-05-29T11:35:13;20.05;;;4.35;;
51943;SDS011;37969;53.132;6.370;2023-05-29T11:37:41;21.45;;;4.53;;
51943;SDS011;37969;53.132;6.370;2023-05-29T11:40:10;18.98;;;4.38;;
51943;SDS011;37969;53.132;6.370;2023-05-29T11:42:41;18.55;;;4.05;;
51943;SDS011;37969;53.132;6.370;2023-05-29T11:45:12;18.90;;;5.00;;
51943;SDS011;37969;53.132;6.370;2023-05-29T11:50:17;21.38;;;4.13;;
51943;SDS011;37969;53.132;6.370;2023-05-29T11:52:45;20.35;;;4.65;;
51943;SDS011;37969;53.132;6.370;2023-05-29T11:55:11;16.23;;;4.00;;
51943;SDS011;37969;53.132;6.370;2023-05-29T11:57:38;14.93;;;3.80;;
51943;SDS011;37969;53.132;6.370;2023-05-29T12:00:04;25.17;;;4.68;;
51943;SDS011;37969;53.132;6.370;2023-05-29T12:02:35;22.05;;;4.70;;
51943;SDS011;37969;53.132;6.370;2023-05-29T12:05:02;25.95;;;4.32;;
51943;SDS011;37969;53.132;6.370;2023-05-29T12:07:29;21.02;;;4.60;;
51943;SDS011;37969;53.132;6.370;2023-05-29T12:09:56;25.42;;;4.63;;
51943;SDS011;37969;53.132;6.370;2023-05-29T12:12:23;19.40;;;3.75;;
51943;SDS011;37969;53.132;6.370;2023-05-29T12:14:50;23.05;;;4.20;;
51943;SDS011;37969;53.132;6.370;2023-05-29T12:17:16;16.50;;;3.70;;
51943;SDS011;37969;53.132;6.370;2023-05-29T12:19:43;15.60;;;3.67;;
51943;SDS011;37969;53.132;6.370;2023-05-29T12:22:09;17.83;;;4.18;;
51943;SDS011;37969;53.132;6.370;2023-05-29T12:24:35;20.02;;;4.00;;
51943;SDS011;37969;53.132;6.370;2023-05-29T12:27:07;20.05;;;4.15;;
51943;SDS011;37969;53.132;6.370;2023-05-29T12:29:34;16.98;;;4.50;;
51943;SDS011;37969;53.132;6.370;2023-05-29T12:32:00;19.88;;;4.53;;
51943;SDS011;37969;53.132;6.370;2023-05-29T12:34:27;21.13;;;4.60;;
51943;SDS011;37969;53.132;6.370;2023-05-29T12:37:06;21.30;;;4.18;;
51943;SDS011;37969;53.132;6.370;2023-05-29T12:39:34;19.27;;;3.97;;
51943;SDS011;37969;53.132;6.370;2023-05-29T12:42:01;22.73;;;4.35;;
51943;SDS011;37969;53.132;6.370;2023-05-29T12:44:27;20.52;;;4.47;;
51943;SDS011;37969;53.132;6.370;2023-05-29T12:46:55;16.50;;;3.70;;
51943;SDS011;37969;53.132;6.370;2023-05-29T12:49:22;11.23;;;3.40;;
51943;SDS011;37969;53.132;6.370;2023-05-29T12:51:50;15.25;;;3.70;;
51943;SDS011;37969;53.132;6.370;2023-05-29T12:54:17;13.57;;;3.90;;
51943;SDS011;37969;53.132;6.370;2023-05-29T12:56:43;20.75;;;4.40;;
51943;SDS011;37969;53.132;6.370;2023-05-29T12:59:11;15.60;;;3.85;;
51943;SDS011;37969;53.132;6.370;2023-05-29T13:01:38;16.13;;;4.30;;
51943;SDS011;37969;53.132;6.370;2023-05-29T13:04:05;20.27;;;4.55;;
51943;SDS011;37969;53.132;6.370;2023-05-29T13:06:32;16.10;;;3.40;;
51943;SDS011;37969;53.132;6.370;2023-05-29T13:08:58;18.33;;;3.50;;
51943;SDS011;37969;53.132;6.370;2023-05-29T13:11:24;15.25;;;3.50;;
51943;SDS011;37969;53.132;6.370;2023-05-29T13:13:50;16.27;;;3.90;;
51943;SDS011;37969;53.132;6.370;2023-05-29T13:16:17;12.90;;;3.42;;
51943;SDS011;37969;53.132;6.370;2023-05-29T13:18:43;15.27;;;3.70;;
51943;SDS011;37969;53.132;6.370;2023-05-29T13:21:09;12.43;;;3.65;;
51943;SDS011;37969;53.132;6.370;2023-05-29T13:23:36;15.93;;;3.50;;
51943;SDS011;37969;53.132;6.370;2023-05-29T13:26:03;14.48;;;2.97;;
51943;SDS011;37969;53.132;6.370;2023-05-29T13:28:30;11.50;;;3.17;;
51943;SDS011;37969;53.132;6.370;2023-05-29T13:30:56;14.88;;;2.95;;
51943;SDS011;37969;53.132;6.370;2023-05-29T13:33:23;16.85;;;3.28;;
51943;SDS011;37969;53.132;6.370;2023-05-29T13:35:49;15.20;;;3.60;;
51943;SDS011;37969;53.132;6.370;2023-05-29T13:38:16;12.55;;;3.33;;
51943;SDS011;37969;53.132;6.370;2023-05-29T13:40:42;12.05;;;3.22;;
51943;SDS011;37969;53.132;6.370;2023-05-29T13:43:08;15.50;;;3.13;;
51943;SDS011;37969;53.132;6.370;2023-05-29T13:45:34;13.23;;;3.10;;
51943;SDS011;37969;53.132;6.370;2023-05-29T13:48:00;15.82;;;4.07;;
51943;SDS011;37969;53.132;6.370;2023-05-29T13:50:26;15.80;;;3.83;;
51943;SDS011;37969;53.132;6.370;2023-05-29T13:52:53;17.38;;;3.20;;
51943;SDS011;37969;53.132;6.370;2023-05-29T13:55:19;14.00;;;3.20;;
51943;SDS011;37969;53.132;6.370;2023-05-29T13:57:45;11.98;;;2.70;;
51943;SDS011;37969;53.132;6.370;2023-05-29T14:00:12;17.45;;;3.58;;
51943;SDS011;37969;53.132;6.370;2023-05-29T14:02:38;11.43;;;3.13;;
51943;SDS011;37969;53.132;6.370;2023-05-29T14:05:04;13.50;;;3.05;;
51943;SDS011;37969;53.132;6.370;2023-05-29T14:07:31;15.00;;;3.10;;
51943;SDS011;37969;53.132;6.370;2023-05-29T14:09:57;15.57;;;3.60;;
51943;SDS011;37969;53.132;6.370;2023-05-29T14:12:23;8.95;;;2.80;;
51943;SDS011;37969;53.132;6.370;2023-05-29T14:14:49;14.30;;;3.22;;
51943;SDS011;37969;53.132;6.370;2023-05-29T14:17:16;10.10;;;2.78;;
51943;SDS011;37969;53.132;6.370;2023-05-29T14:19:42;8.45;;;3.00;;
51943;SDS011;37969;53.132;6.370;2023-05-29T14:22:10;13.38;;;3.25;;
51943;SDS011;37969;53.132;6.370;2023-05-29T14:24:37;13.52;;;2.70;;
51943;SDS011;37969;53.132;6.370;2023-05-29T14:27:03;13.38;;;3.08;;
51943;SDS011;37969;53.132;6.370;2023-05-29T14:29:29;17.75;;;4.03;;
51943;SDS011;37969;53.132;6.370;2023-05-29T14:31:55;11.38;;;2.78;;
51943;SDS011;37969;53.132;6.370;2023-05-29T14:34:22;12.77;;;3.22;;
51943;SDS011;37969;53.132;6.370;2023-05-29T14:36:48;10.60;;;3.20;;
51943;SDS011;37969;53.132;6.370;2023-05-29T14:39:14;14.65;;;2.80;;
51943;SDS011;37969;53.132;6.370;2023-05-29T14:41:40;14.65;;;3.08;;
51943;SDS011;37969;53.132;6.370;2023-05-29T14:44:06;9.98;;;2.80;;
51943;SDS011;37969;53.132;6.370;2023-05-29T14:46:33;13.05;;;3.45;;
51943;SDS011;37969;53.132;6.370;2023-05-29T14:48:59;13.27;;;3.13;;
51943;SDS011;37969;53.132;6.370;2023-05-29T14:51:25;10.07;;;2.72;;
51943;SDS011;37969;53.132;6.370;2023-05-29T14:53:52;10.10;;;2.75;;
51943;SDS011;37969;53.132;6.370;2023-05-29T14:56:18;11.48;;;2.88;;
51943;SDS011;37969;53.132;6.370;2023-05-29T14:58:44;13.52;;;3.13;;